Time;durP1;ratioP1;P1;durP2;ratioP2;P2;SDS_P1;SDS_P2;PMS_P1;PMS_P2;Temp;Humidity;BMP_temperature;BMP_pressure;BME280_temperature;BME280_humidity;BME280_pressure;Samples;Min_cycle;Max_cycle;Signal;HPM_P1;HPM_P2
2024/01/03 00:02:21;;;;;;;1.17;1.07;;;7.30;80.10;;;;;;4973257;28;20685;-92
2024/01/03 00:04:50;;;;;;;1.50;1.40;;;7.30;80.20;;;;;;4980223;28;20288;-92
2024/01/03 00:07:18;;;;;;;4.70;1.80;;;7.20;80.50;;;;;;4982027;28;20264;-91
2024/01/03 00:09:47;;;;;;;0.53;0.53;;;7.30;80.60;;;;;;4977843;28;20201;-92
2024/01/03 00:12:23;;;;;;;1.17;1.10;;;7.30;80.60;;;;;;4980224;28;20291;-89
2024/01/03 00:14:52;;;;;;;2.53;2.00;;;7.30;80.80;;;;;;4976671;28;20244;-90
2024/01/03 00:17:21;;;;;;;3.70;1.10;;;7.30;80.90;;;;;;4979677;28;20201;-89
2024/01/03 00:19:56;;;;;;;2.40;1.87;;;7.30;81.00;;;;;;4977234;28;20708;-88
2024/01/03 00:22:25;;;;;;;1.43;1.13;;;7.30;80.90;;;;;;4984437;28;20655;-89
2024/01/03 00:25:04;;;;;;;1.30;1.20;;;7.30;81.00;;;;;;4980911;28;20229;-85
2024/01/03 00:27:35;;;;;;;0.73;0.73;;;7.30;80.90;;;;;;4971909;28;20208;-87
2024/01/03 00:30:07;;;;;;;2.57;1.20;;;7.40;80.90;;;;;;4966033;28;20230;-87
2024/01/03 00:32:36;;;;;;;0.90;0.90;;;7.40;80.80;;;;;;4965899;28;20181;-87
2024/01/03 00:35:15;;;;;;;3.90;1.27;;;7.50;80.70;;;;;;4978107;28;20212;-86
2024/01/03 00:37:46;;;;;;;2.47;2.20;;;7.50;80.70;;;;;;4981363;28;20216;-89
2024/01/03 00:40:55;;;;;;;0.57;0.57;;;7.50;80.80;;;;;;4972107;28;20202;-91
2024/01/03 00:43:25;;;;;;;1.33;1.20;;;7.60;80.70;;;;;;4979072;28;20209;-91
2024/01/03 00:45:54;;;;;;;1.27;1.03;;;7.60;80.60;;;;;;4985061;28;20233;-90
2024/01/03 00:48:22;;;;;;;0.60;0.60;;;7.60;80.60;;;;;;4976070;28;20204;-91
2024/01/03 00:50:51;;;;;;;0.50;0.50;;;7.70;80.50;;;;;;4971975;28;20194;-90
2024/01/03 00:53:20;;;;;;;1.70;1.43;;;7.70;80.40;;;;;;4974670;28;20204;-91
2024/01/03 00:55:49;;;;;;;1.60;1.37;;;7.80;80.40;;;;;;4973842;28;20186;-91
2024/01/03 00:58:18;;;;;;;2.63;1.13;;;7.80;80.30;;;;;;4973045;28;20251;-88
2024/01/03 01:00:49;;;;;;;0.50;0.50;;;7.90;80.30;;;;;;4970989;28;20546;-87
2024/01/03 01:03:19;;;;;;;2.10;0.67;;;7.90;80.10;;;;;;4974421;28;20547;-87
2024/01/03 01:05:47;;;;;;;1.10;1.03;;;8.00;80.20;;;;;;4970839;28;20248;-83
2024/01/03 01:08:16;;;;;;;0.60;0.60;;;8.00;80.20;;;;;;4976053;28;20197;-83
2024/01/03 01:10:48;;;;;;;0.67;0.67;;;8.10;80.20;;;;;;4976281;28;20222;-82
2024/01/03 01:13:17;;;;;;;1.57;1.47;;;8.10;80.20;;;;;;4977202;28;20289;-84
2024/01/03 01:15:45;;;;;;;0.97;0.97;;;8.20;80.20;;;;;;4972397;28;20229;-85
2024/01/03 01:18:15;;;;;;;1.70;1.30;;;8.20;79.90;;;;;;4975851;28;20190;-84
2024/01/03 01:20:44;;;;;;;0.47;0.47;;;8.20;79.70;;;;;;4977655;28;20202;-84
2024/01/03 01:23:13;;;;;;;1.00;1.00;;;8.20;79.50;;;;;;4968221;28;20194;-82
2024/01/03 01:25:42;;;;;;;0.60;0.60;;;8.20;79.50;;;;;;4976954;28;20629;-82
2024/01/03 01:28:10;;;;;;;6.23;1.17;;;8.20;79.40;;;;;;4975727;28;20598;-83
2024/01/03 01:30:39;;;;;;;0.90;0.90;;;8.20;79.30;;;;;;4982997;28;20205;-83
2024/01/03 01:33:08;;;;;;;2.27;1.27;;;8.20;79.20;;;;;;4974993;28;20260;-83
2024/01/03 01:35:38;;;;;;;1.47;1.37;;;8.20;79.20;;;;;;4976569;28;20201;-82
2024/01/03 01:38:07;;;;;;;0.80;0.80;;;8.30;79.20;;;;;;4976788;28;20211;-82
2024/01/03 01:40:36;;;;;;;0.50;0.50;;;8.30;79.10;;;;;;4978139;28;20339;-85
2024/01/03 01:43:06;;;;;;;1.13;1.13;;;8.30;79.00;;;;;;4972764;28;20217;-84
2024/01/03 01:45:37;;;;;;;1.27;1.20;;;8.30;79.00;;;;;;4972538;28;20253;-83
2024/01/03 01:48:07;;;;;;;1.33;1.23;;;8.30;78.90;;;;;;4972105;28;20220;-83
2024/01/03 01:50:39;;;;;;;0.93;0.90;;;8.30;78.80;;;;;;4982637;28;20201;-83
2024/01/03 01:53:09;;;;;;;0.80;0.80;;;8.30;78.80;;;;;;4977133;28;20233;-82
2024/01/03 01:55:39;;;;;;;3.27;1.20;;;8.30;78.80;;;;;;4970086;28;20205;-82
2024/01/03 01:58:09;;;;;;;0.80;0.80;;;8.30;78.80;;;;;;4970136;28;20643;-82
2024/01/03 02:00:39;;;;;;;1.03;1.03;;;8.30;78.80;;;;;;4976189;28;20228;-83
2024/01/03 02:03:10;;;;;;;0.80;0.77;;;8.30;78.70;;;;;;4976347;28;20293;-85
2024/01/03 02:05:45;;;;;;;0.83;0.73;;;8.40;78.80;;;;;;4971666;28;20340;-86
2024/01/03 02:08:14;;;;;;;3.27;1.20;;;8.40;78.80;;;;;;4977838;28;20237;-85
2024/01/03 02:10:43;;;;;;;4.37;2.20;;;8.40;78.80;;;;;;4977046;28;22048;-86
2024/01/03 02:13:12;;;;;;;0.50;0.50;;;8.40;78.80;;;;;;4976502;28;20604;-86
2024/01/03 02:15:40;;;;;;;1.83;1.70;;;8.40;78.80;;;;;;4975865;28;20202;-84
2024/01/03 02:18:09;;;;;;;0.70;0.70;;;8.40;78.80;;;;;;4968031;28;20260;-84
2024/01/03 02:20:40;;;;;;;1.30;1.00;;;8.50;78.80;;;;;;4975935;28;20214;-82
2024/01/03 02:23:10;;;;;;;2.00;1.50;;;8.50;78.80;;;;;;4972822;28;20212;-83
2024/01/03 02:25:40;;;;;;;2.43;1.27;;;8.50;78.70;;;;;;4980330;28;20265;-82
2024/01/03 02:28:10;;;;;;;1.57;0.90;;;8.50;78.80;;;;;;4969220;28;20210;-83
2024/01/03 02:30:41;;;;;;;1.17;1.07;;;8.50;78.80;;;;;;4973063;28;20338;-82
2024/01/03 02:33:11;;;;;;;0.90;0.90;;;8.50;78.80;;;;;;4969457;28;20206;-82
2024/01/03 02:35:39;;;;;;;1.90;1.63;;;8.60;78.80;;;;;;4971774;28;20208;-84
2024/01/03 02:38:08;;;;;;;2.10;1.33;;;8.60;78.80;;;;;;4971854;28;20317;-83
2024/01/03 02:40:39;;;;;;;1.23;1.13;;;8.60;78.60;;;;;;4972755;28;20200;-83
2024/01/03 02:43:07;;;;;;;1.23;1.13;;;8.60;78.60;;;;;;4968448;28;20297;-82
2024/01/03 02:45:36;;;;;;;4.80;2.83;;;8.60;78.60;;;;;;4982821;28;20193;-82
2024/01/03 02:48:05;;;;;;;1.37;1.10;;;8.60;78.60;;;;;;4961166;28;20233;-82
2024/01/03 02:50:43;;;;;;;0.73;0.70;;;8.60;78.50;;;;;;4975057;28;20210;-83
2024/01/03 02:53:12;;;;;;;2.63;1.57;;;8.60;78.50;;;;;;4974253;28;20703;-83
2024/01/03 02:55:42;;;;;;;0.90;0.90;;;8.60;78.50;;;;;;4969974;28;20264;-83
2024/01/03 02:58:11;;;;;;;0.77;0.77;;;8.60;78.50;;;;;;4960593;28;20221;-83
2024/01/03 03:00:40;;;;;;;0.87;0.87;;;8.60;78.40;;;;;;4973204;28;20245;-83
2024/01/03 03:03:09;;;;;;;0.70;0.70;;;8.70;78.50;;;;;;4968934;28;20555;-82
2024/01/03 03:05:38;;;;;;;1.30;1.13;;;8.70;79.20;;;;;;4973158;28;20206;-82
2024/01/03 03:08:07;;;;;;;2.13;1.57;;;8.70;78.50;;;;;;4969048;28;20229;-81
2024/01/03 03:10:36;;;;;;;2.10;1.90;;;8.70;78.30;;;;;;4977375;28;20194;-83
2024/01/03 03:13:06;;;;;;;1.27;1.07;;;8.70;78.30;;;;;;4967608;28;20646;-85
2024/01/03 03:15:35;;;;;;;1.37;1.27;;;8.80;78.20;;;;;;4976988;28;20229;-85
2024/01/03 03:18:06;;;;;;;0.83;0.83;;;8.80;78.20;;;;;;4973443;28;20182;-86
2024/01/03 03:20:36;;;;;;;12.43;2.40;;;8.80;78.00;;;;;;4975734;28;20210;-85
2024/01/03 03:23:05;;;;;;;0.40;0.40;;;8.80;77.90;;;;;;4976670;28;20206;-84
2024/01/03 03:25:33;;;;;;;1.57;1.47;;;8.80;77.90;;;;;;4970774;28;20204;-82
2024/01/03 03:28:07;;;;;;;1.50;1.30;;;8.80;77.90;;;;;;4968306;28;20768;-83
2024/01/03 03:30:39;;;;;;;1.40;1.17;;;8.80;77.90;;;;;;4976500;28;20202;-83
2024/01/03 03:33:07;;;;;;;3.43;1.47;;;8.80;77.70;;;;;;4976138;28;20289;-83
2024/01/03 03:35:37;;;;;;;1.30;1.07;;;8.80;77.70;;;;;;4978918;28;20933;-83
2024/01/03 03:38:05;;;;;;;2.63;1.03;;;8.80;77.70;;;;;;4976503;28;20202;-83
2024/01/03 03:40:34;;;;;;;4.40;2.03;;;8.70;77.60;;;;;;4976133;28;20224;-84
2024/01/03 03:43:03;;;;;;;1.73;1.10;;;8.80;77.70;;;;;;4967403;28;20445;-83
2024/01/03 03:45:32;;;;;;;1.20;1.10;;;8.70;77.70;;;;;;4967272;28;20197;-83
2024/01/03 03:48:02;;;;;;;0.83;0.83;;;8.70;77.80;;;;;;4973127;28;20606;-83
2024/01/03 03:50:31;;;;;;;4.53;1.60;;;8.70;77.70;;;;;;4978942;28;20640;-83
2024/01/03 03:53:00;;;;;;;1.53;1.43;;;8.70;77.80;;;;;;4973409;28;20256;-83
2024/01/03 03:55:28;;;;;;;0.87;0.87;;;8.70;77.90;;;;;;4978855;28;20286;-84
2024/01/03 03:57:57;;;;;;;0.70;0.70;;;8.70;77.90;;;;;;4972266;28;20289;-83
2024/01/03 04:00:26;;;;;;;1.87;1.73;;;8.70;77.90;;;;;;4976217;28;20960;-84
2024/01/03 04:02:55;;;;;;;1.70;1.30;;;8.70;77.90;;;;;;4969100;28;20296;-83
2024/01/03 04:05:26;;;;;;;0.60;0.60;;;8.80;78.00;;;;;;4976829;28;20245;-85
2024/01/03 04:07:54;;;;;;;7.90;2.97;;;8.80;78.00;;;;;;4974116;28;20779;-85
2024/01/03 04:10:23;;;;;;;1.53;1.13;;;8.70;78.10;;;;;;4974940;28;20217;-84
2024/01/03 04:12:52;;;;;;;1.63;1.47;;;8.70;78.00;;;;;;4972012;28;20373;-84
2024/01/03 04:15:21;;;;;;;1.30;1.20;;;8.70;78.00;;;;;;4979743;28;20631;-85
2024/01/03 04:17:56;;;;;;;1.67;1.57;;;8.70;78.00;;;;;;4979300;28;20197;-88
2024/01/03 04:20:26;;;;;;;3.37;1.53;;;8.70;78.10;;;;;;4970550;28;20676;-88
2024/01/03 04:22:55;;;;;;;1.57;1.47;;;8.70;78.10;;;;;;4979117;28;20296;-88
2024/01/03 04:25:24;;;;;;;1.63;1.53;;;8.70;78.20;;;;;;4975358;28;20283;-87
2024/01/03 04:27:52;;;;;;;1.60;1.50;;;8.70;78.10;;;;;;4977764;28;20685;-87
2024/01/03 04:30:21;;;;;;;2.43;2.23;;;8.60;78.10;;;;;;4970403;28;20198;-88
2024/01/03 04:32:50;;;;;;;1.63;1.53;;;8.60;78.20;;;;;;4977340;28;20292;-87
2024/01/03 04:35:19;;;;;;;7.23;2.27;;;8.60;78.00;;;;;;4979678;28;20202;-88
2024/01/03 04:37:49;;;;;;;1.90;1.53;;;8.60;78.00;;;;;;4972476;28;20202;-88
2024/01/03 04:40:17;;;;;;;2.97;1.97;;;8.60;78.00;;;;;;4979909;28;20198;-85
2024/01/03 04:42:46;;;;;;;2.27;2.07;;;8.50;77.90;;;;;;4976702;28;20193;-87
2024/01/03 04:45:14;;;;;;;1.33;1.23;;;8.50;78.00;;;;;;4978032;28;20215;-87
2024/01/03 04:47:46;;;;;;;0.77;0.77;;;8.50;78.00;;;;;;4970060;28;20213;-87
2024/01/03 04:50:15;;;;;;;2.80;2.27;;;8.50;77.90;;;;;;4978992;28;20209;-87
2024/01/03 04:52:44;;;;;;;1.47;1.37;;;8.50;77.90;;;;;;4978535;28;20209;-87
2024/01/03 04:55:14;;;;;;;1.53;1.30;;;8.40;77.80;;;;;;4974586;28;20274;-87
2024/01/03 04:57:43;;;;;;;1.80;1.70;;;8.40;77.80;;;;;;4978136;28;20211;-87
2024/01/03 05:00:13;;;;;;;1.93;1.83;;;8.40;77.70;;;;;;4975152;28;20665;-89
2024/01/03 05:02:41;;;;;;;5.30;2.47;;;8.40;77.70;;;;;;4979173;28;20234;-90
2024/01/03 05:05:10;;;;;;;4.33;2.53;;;8.40;77.70;;;;;;4974403;28;20206;-89
2024/01/03 05:07:39;;;;;;;5.90;3.10;;;8.40;77.80;;;;;;4976788;28;20225;-89
2024/01/03 05:10:09;;;;;;;1.90;1.80;;;8.40;77.90;;;;;;4979323;28;20204;-87
2024/01/03 05:12:40;;;;;;;1.50;1.40;;;8.40;77.90;;;;;;4976749;28;20238;-87
2024/01/03 05:15:10;;;;;;;2.90;2.03;;;8.40;78.00;;;;;;4977413;28;20201;-87
2024/01/03 05:17:39;;;;;;;1.50;1.40;;;8.40;78.10;;;;;;4976965;28;20201;-87
2024/01/03 05:20:09;;;;;;;1.97;1.80;;;8.40;78.10;;;;;;4977857;28;20220;-86
2024/01/03 05:22:37;;;;;;;1.13;1.07;;;8.30;78.20;;;;;;4978299;28;20701;-86
2024/01/03 05:25:07;;;;;;;1.60;1.50;;;8.40;78.10;;;;;;4972228;28;20314;-86
2024/01/03 05:27:36;;;;;;;0.57;0.57;;;8.40;78.00;;;;;;4977090;28;20308;-87
2024/01/03 05:30:07;;;;;;;1.73;1.27;;;8.40;78.00;;;;;;4978166;28;20198;-87
2024/01/03 05:32:36;;;;;;;1.03;0.83;;;8.40;78.00;;;;;;4976455;28;20206;-88
2024/01/03 05:35:06;;;;;;;2.17;2.00;;;8.40;78.00;;;;;;4976245;28;20640;-88
2024/01/03 05:37:34;;;;;;;1.93;1.80;;;8.30;77.90;;;;;;4976256;28;20285;-87
2024/01/03 05:40:04;;;;;;;2.17;1.97;;;8.30;77.60;;;;;;4974531;28;20556;-87
2024/01/03 05:42:34;;;;;;;3.30;2.77;;;8.20;77.00;;;;;;4982570;28;20278;-85
2024/01/03 05:45:02;;;;;;;2.03;1.90;;;8.20;76.90;;;;;;4973786;28;20216;-84
2024/01/03 05:47:32;;;;;;;2.40;2.20;;;8.20;76.60;;;;;;4970295;28;20654;-83
2024/01/03 05:50:02;;;;;;;7.87;3.43;;;8.20;76.60;;;;;;4971105;28;20588;-84
2024/01/03 05:52:30;;;;;;;3.37;2.93;;;8.10;76.50;;;;;;4975596;28;20197;-83
2024/01/03 05:55:00;;;;;;;2.07;1.93;;;8.10;76.40;;;;;;4973092;28;20206;-85
2024/01/03 05:57:29;;;;;;;2.93;2.60;;;8.10;76.40;;;;;;4975087;28;20847;-84
2024/01/03 05:59:58;;;;;;;2.83;2.63;;;8.10;76.40;;;;;;4972052;28;20325;-92
2024/01/03 06:02:28;;;;;;;4.03;2.77;;;8.10;76.40;;;;;;4973032;28;20657;-92
2024/01/03 06:04:58;;;;;;;4.10;2.67;;;8.10;76.40;;;;;;4971432;28;20707;-82
2024/01/03 06:07:27;;;;;;;1.83;1.70;;;8.10;76.50;;;;;;4976156;28;20229;-85
2024/01/03 06:09:56;;;;;;;3.67;2.30;;;8.20;76.60;;;;;;4967708;28;20234;-82
2024/01/03 06:12:26;;;;;;;2.37;2.17;;;8.20;76.60;;;;;;4972805;28;20213;-84
2024/01/03 06:14:55;;;;;;;2.13;1.80;;;8.20;76.40;;;;;;4968079;28;20237;-83
2024/01/03 06:17:27;;;;;;;1.73;1.63;;;8.20;76.50;;;;;;4971154;28;20209;-84
2024/01/03 06:19:57;;;;;;;2.20;1.97;;;8.20;76.70;;;;;;4973616;28;20732;-85
2024/01/03 06:22:30;;;;;;;2.53;2.17;;;8.20;76.70;;;;;;4967847;28;20236;-85
2024/01/03 06:25:01;;;;;;;1.77;1.67;;;8.30;76.90;;;;;;4977023;28;20277;-91
2024/01/03 06:27:30;;;;;;;2.90;2.50;;;8.30;76.90;;;;;;4981710;28;20293;-92
2024/01/03 06:29:59;;;;;;;3.97;2.13;;;8.30;77.00;;;;;;4973468;28;20260;-91
2024/01/03 06:32:29;;;;;;;4.00;2.20;;;8.40;77.20;;;;;;4976931;28;20194;-90
2024/01/03 06:34:59;;;;;;;1.57;1.47;;;8.40;77.30;;;;;;4965390;28;20220;-82
2024/01/03 06:37:28;;;;;;;2.97;1.87;;;8.40;77.30;;;;;;4963877;28;20280;-82
2024/01/03 06:39:57;;;;;;;2.63;2.23;;;8.40;77.30;;;;;;4972303;28;20210;-83
2024/01/03 06:42:25;;;;;;;3.10;2.63;;;8.50;77.50;;;;;;4980180;28;20232;-89
2024/01/03 06:44:54;;;;;;;6.10;1.83;;;8.50;77.40;;;;;;4979728;28;20197;-91
2024/01/03 06:47:23;;;;;;;1.67;1.57;;;8.50;77.40;;;;;;4975596;28;20619;-81
2024/01/03 06:49:52;;;;;;;1.63;1.53;;;8.60;77.60;;;;;;4975701;28;20216;-81
2024/01/03 06:52:22;;;;;;;1.57;1.47;;;8.60;77.60;;;;;;4967526;28;20285;-82
2024/01/03 06:54:51;;;;;;;3.80;2.70;;;8.60;77.60;;;;;;4973459;28;20217;-90
2024/01/03 06:57:22;;;;;;;5.87;2.33;;;8.70;77.70;;;;;;4974970;28;20268;-85
2024/01/03 06:59:51;;;;;;;6.13;2.10;;;8.70;77.70;;;;;;4967013;28;20284;-92
2024/01/03 07:02:20;;;;;;;2.10;1.33;;;8.70;77.70;;;;;;4972764;28;20198;-91
2024/01/03 07:04:49;;;;;;;1.60;1.50;;;8.80;77.90;;;;;;4978142;28;20197;-89
2024/01/03 07:07:18;;;;;;;0.80;0.80;;;8.80;77.90;;;;;;4971561;28;20201;-84
2024/01/03 07:09:52;;;;;;;1.00;1.00;;;8.80;77.90;;;;;;4972573;28;20217;-84
2024/01/03 07:12:24;;;;;;;1.07;0.97;;;8.80;77.90;;;;;;4974649;28;20694;-82
2024/01/03 07:14:52;;;;;;;3.07;1.50;;;8.90;78.00;;;;;;4970712;28;20286;-85
2024/01/03 07:17:21;;;;;;;3.40;1.57;;;8.90;78.00;;;;;;4980502;28;20624;-87
2024/01/03 07:19:50;;;;;;;1.50;0.93;;;8.90;78.00;;;;;;4974165;28;20210;-84
2024/01/03 07:22:19;;;;;;;1.00;0.90;;;9.00;78.10;;;;;;4966981;28;20209;-85
2024/01/03 07:24:52;;;;;;;1.40;1.30;;;9.00;78.10;;;;;;4974427;28;20233;-83
2024/01/03 07:27:21;;;;;;;0.70;0.70;;;9.00;78.10;;;;;;4971534;28;20228;-85
2024/01/03 07:29:51;;;;;;;4.60;2.30;;;9.00;78.00;;;;;;4974584;28;20238;-83
2024/01/03 07:32:20;;;;;;;3.03;2.50;;;9.10;78.00;;;;;;4966306;28;20212;-84
2024/01/03 07:34:48;;;;;;;4.83;3.07;;;9.20;78.10;;;;;;4982131;28;20656;-84
2024/01/03 07:37:17;;;;;;;17.57;3.70;;;9.20;77.80;;;;;;4979608;28;20201;-87
2024/01/03 07:39:45;;;;;;;7.37;4.33;;;9.20;77.50;;;;;;4968605;28;20197;-84
2024/01/03 07:42:15;;;;;;;6.20;3.93;;;9.20;77.10;;;;;;4965026;28;20198;-87
2024/01/03 07:44:47;;;;;;;4.10;3.07;;;9.20;77.20;;;;;;4970565;28;20266;-82
2024/01/03 07:47:16;;;;;;;7.33;3.00;;;9.20;77.20;;;;;;4989316;28;20214;-87
2024/01/03 07:49:45;;;;;;;2.87;2.23;;;9.20;77.20;;;;;;4970274;28;20268;-86
2024/01/03 07:52:17;;;;;;;5.40;3.23;;;9.20;77.30;;;;;;4968798;28;20204;-87
2024/01/03 07:54:45;;;;;;;8.13;3.90;;;9.20;77.40;;;;;;4974439;28;20213;-84
2024/01/03 07:57:16;;;;;;;4.63;3.03;;;9.20;77.50;;;;;;4974201;28;20198;-88
2024/01/03 07:59:45;;;;;;;6.70;2.77;;;9.30;77.80;;;;;;4975272;28;20260;-89
2024/01/03 08:02:14;;;;;;;3.13;1.83;;;9.30;78.30;;;;;;4979430;28;20202;-93
2024/01/03 08:04:43;;;;;;;3.50;3.10;;;9.30;78.40;;;;;;4975221;28;20607;-92
2024/01/03 08:07:11;;;;;;;7.87;5.33;;;9.40;78.70;;;;;;4975836;28;20204;-93
2024/01/03 08:09:40;;;;;;;4.57;3.33;;;9.40;79.00;;;;;;4970972;28;20214;-89
2024/01/03 08:12:10;;;;;;;3.33;2.83;;;9.40;79.20;;;;;;4980391;28;20212;-94
2024/01/03 08:14:40;;;;;;;1.73;1.63;;;9.40;79.50;;;;;;4990276;28;20546;-91
2024/01/03 08:17:08;;;;;;;1.03;0.97;;;9.50;79.60;;;;;;4977219;28;20293;-94
2024/01/03 08:19:40;;;;;;;1.90;1.77;;;9.50;79.80;;;;;;4977413;28;20229;-90
2024/01/03 08:22:10;;;;;;;4.13;1.70;;;9.50;80.00;;;;;;4984204;28;20201;-93
2024/01/03 08:24:40;;;;;;;2.97;1.77;;;9.50;80.30;;;;;;4985292;28;20210;-92
2024/01/03 08:27:09;;;;;;;0.63;0.63;;;9.60;80.40;;;;;;4969246;28;20275;-89
2024/01/03 08:29:40;;;;;;;1.67;1.13;;;9.60;80.40;;;;;;4980807;28;20229;-93
2024/01/03 08:32:09;;;;;;;2.03;1.93;;;9.70;80.60;;;;;;4982044;28;20221;-93
2024/01/03 08:34:46;;;;;;;3.03;1.37;;;9.60;80.90;;;;;;4998511;28;20216;-93
2024/01/03 08:37:16;;;;;;;0.50;0.50;;;9.60;81.00;;;;;;4989011;28;20208;-95
2024/01/03 08:39:51;;;;;;;1.93;1.73;;;9.70;80.90;;;;;;4986896;28;20205;-96
2024/01/03 08:42:21;;;;;;;1.80;1.23;;;9.70;80.80;;;;;;4988483;28;20227;-86
2024/01/03 08:44:52;;;;;;;4.73;1.97;;;9.70;80.80;;;;;;4985099;28;20264;-90
2024/01/03 08:47:21;;;;;;;0.63;0.63;;;9.70;80.60;;;;;;5002206;28;20201;-89
2024/01/03 08:49:53;;;;;;;1.17;1.07;;;9.70;80.60;;;;;;4993259;28;20292;-91
2024/01/03 08:52:25;;;;;;;2.07;0.90;;;9.70;80.70;;;;;;4985933;28;20201;-90
2024/01/03 08:54:54;;;;;;;1.53;0.90;;;9.80;80.80;;;;;;4989730;28;20216;-89
2024/01/03 08:57:31;;;;;;;1.93;0.97;;;9.80;80.80;;;;;;4994699;28;20212;-91
2024/01/03 09:00:03;;;;;;;4.17;2.00;;;9.80;80.80;;;;;;4986994;28;20280;-90
2024/01/03 09:02:32;;;;;;;1.40;1.20;;;9.80;80.80;;;;;;4988157;28;20463;-91
2024/01/03 09:05:01;;;;;;;1.50;1.40;;;9.80;80.80;;;;;;4992838;28;20213;-91
2024/01/03 09:07:39;;;;;;;0.50;0.50;;;9.80;80.90;;;;;;4983696;28;20291;-90
2024/01/03 09:10:09;;;;;;;1.87;1.63;;;9.80;81.20;;;;;;4985002;28;20276;-90
2024/01/03 09:12:39;;;;;;;0.73;0.73;;;9.90;81.10;;;;;;4987824;28;20231;-90
2024/01/03 09:15:10;;;;;;;1.17;0.87;;;9.90;81.20;;;;;;4981619;28;20201;-91
2024/01/03 09:17:42;;;;;;;1.47;1.00;;;9.90;81.20;;;;;;4984558;28;20206;-90
2024/01/03 09:20:13;;;;;;;2.27;1.03;;;9.90;81.20;;;;;;4981757;28;20201;-87
2024/01/03 09:22:42;;;;;;;0.60;0.60;;;10.00;81.40;;;;;;4978664;28;20229;-87
2024/01/03 09:25:11;;;;;;;3.80;1.90;;;10.00;81.90;;;;;;4977877;28;20270;-88
2024/01/03 09:27:40;;;;;;;0.70;0.70;;;10.00;82.00;;;;;;4976253;28;20201;-88
2024/01/03 09:30:12;;;;;;;4.07;1.93;;;10.00;82.00;;;;;;4977928;28;20232;-89
2024/01/03 09:32:41;;;;;;;3.17;1.90;;;10.10;82.00;;;;;;4975777;28;20213;-88
2024/01/03 09:35:12;;;;;;;0.93;0.80;;;10.10;82.50;;;;;;4983689;28;20748;-87
2024/01/03 09:37:41;;;;;;;1.95;1.45;;;10.10;82.50;;;;;;4978528;28;20451;-90
2024/01/03 09:40:13;;;;;;;2.00;1.57;;;10.10;82.70;;;;;;4974257;28;20240;-86
2024/01/03 09:42:42;;;;;;;3.90;1.73;;;10.10;82.80;;;;;;4984444;28;20238;-86
2024/01/03 09:45:14;;;;;;;0.93;0.93;;;10.10;82.80;;;;;;4975856;28;20245;-85
2024/01/03 09:47:44;;;;;;;2.57;2.37;;;10.20;82.70;;;;;;4978463;28;20182;-87
2024/01/03 09:50:14;;;;;;;1.80;1.33;;;10.30;82.90;;;;;;4974816;28;20217;-87
2024/01/03 09:52:45;;;;;;;0.87;0.70;;;10.30;83.10;;;;;;4982318;28;20264;-88
2024/01/03 09:55:13;;;;;;;6.13;2.10;;;10.30;83.40;;;;;;4977037;28;20205;-88
2024/01/03 09:57:44;;;;;;;0.40;0.40;;;10.30;83.60;;;;;;4978280;28;20299;-86
2024/01/03 10:00:15;;;;;;;0.73;0.50;;;10.30;83.50;;;;;;4977578;28;20225;-85
2024/01/03 10:02:47;;;;;;;1.30;1.20;;;10.30;84.10;;;;;;4976189;28;20800;-88
2024/01/03 10:05:20;;;;;;;1.50;1.40;;;10.40;84.10;;;;;;4972844;28;20269;-88
2024/01/03 10:07:49;;;;;;;3.00;1.53;;;10.40;84.20;;;;;;4978980;28;20280;-88
2024/01/03 10:10:31;;;;;;;1.50;0.53;;;10.40;84.50;;;;;;4982074;28;20277;-90
2024/01/03 10:13:15;;;;;;;2.33;1.23;;;10.40;85.20;;;;;;4981073;28;20198;-92
2024/01/03 10:15:47;;;;;;;0.90;0.90;;;10.40;85.10;;;;;;4976338;28;20253;-88
2024/01/03 10:18:17;;;;;;;0.97;0.97;;;10.40;85.40;;;;;;4977802;28;20206;-87
2024/01/03 10:20:51;;;;;;;0.80;0.80;;;10.40;85.10;;;;;;4979140;28;20214;-93
2024/01/03 10:23:21;;;;;;;0.50;0.50;;;10.40;85.60;;;;;;4979780;28;20210;-88
2024/01/03 10:25:57;;;;;;;1.20;1.00;;;10.40;85.50;;;;;;4977079;28;20230;-91
2024/01/03 10:28:28;;;;;;;2.77;1.00;;;10.40;85.90;;;;;;4975035;28;20201;-89
2024/01/03 10:30:59;;;;;;;1.43;0.97;;;10.40;86.10;;;;;;4985143;28;20640;-89
2024/01/03 10:33:28;;;;;;;1.90;1.73;;;10.50;86.00;;;;;;4978605;28;20237;-89
2024/01/03 10:35:59;;;;;;;12.57;1.47;;;10.40;86.10;;;;;;4984344;28;20205;-88
2024/01/03 10:38:29;;;;;;;1.20;0.87;;;10.40;86.00;;;;;;4974213;28;20202;-86
2024/01/03 10:41:00;;;;;;;1.07;1.07;;;10.50;85.80;;;;;;4976475;28;20209;-87
2024/01/03 10:43:29;;;;;;;2.23;2.10;;;10.40;86.10;;;;;;4972204;28;20190;-86
2024/01/03 10:46:00;;;;;;;0.60;0.60;;;10.40;86.30;;;;;;4964920;28;20226;-88
2024/01/03 10:48:32;;;;;;;2.70;1.75;;;10.40;86.50;;;;;;4976479;28;20454;-89
2024/01/03 10:51:02;;;;;;;1.17;1.10;;;10.30;86.80;;;;;;4974042;28;20221;-89
2024/01/03 10:53:40;;;;;;;1.27;1.17;;;10.30;87.00;;;;;;4977207;28;20264;-88
2024/01/03 10:56:11;;;;;;;1.60;1.50;;;10.40;87.20;;;;;;4977870;28;20201;-87
2024/01/03 10:58:41;;;;;;;1.10;1.00;;;10.30;87.90;;;;;;4975032;28;20222;-88
2024/01/03 11:01:17;;;;;;;5.83;2.57;;;10.30;88.00;;;;;;4979509;28;20254;-88
2024/01/03 11:03:57;;;;;;;2.47;1.07;;;10.30;87.80;;;;;;4968751;28;20590;-87
2024/01/03 11:06:33;;;;;;;2.23;1.93;;;10.40;87.60;;;;;;4972887;28;20633;-86
2024/01/03 11:09:05;;;;;;;1.30;1.20;;;10.30;87.90;;;;;;4970937;28;20268;-87
2024/01/03 11:11:34;;;;;;;3.67;1.93;;;10.30;87.90;;;;;;4976077;28;20256;-88
2024/01/03 11:14:21;;;;;;;0.73;0.73;;;10.30;88.40;;;;;;4974960;28;20253;-85
2024/01/03 11:16:51;;;;;;;3.80;2.13;;;10.40;88.30;;;;;;4971301;28;20229;-86
2024/01/03 11:19:29;;;;;;;2.67;1.10;;;10.30;88.30;;;;;;4975219;28;20666;-90
2024/01/03 11:22:01;;;;;;;2.83;1.83;;;10.30;88.10;;;;;;4978625;28;20205;-89
2024/01/03 11:24:59;;;;;;;0.50;0.50;;;10.40;88.40;;;;;;4973817;28;20212;-90
2024/01/03 11:27:30;;;;;;;1.50;1.33;;;10.30;88.90;;;;;;4975696;28;20272;-88
2024/01/03 11:29:59;;;;;;;1.67;1.57;;;10.30;89.30;;;;;;4973899;28;20198;-87
2024/01/03 11:32:31;;;;;;;2.47;1.60;;;10.40;89.00;;;;;;4979226;28;20257;-90
2024/01/03 11:35:08;;;;;;;2.17;1.67;;;10.30;89.70;;;;;;4976353;28;20863;-90
2024/01/03 11:37:40;;;;;;;1.73;1.27;;;10.30;89.70;;;;;;4972911;28;20190;-86
2024/01/03 11:40:20;;;;;;;5.50;0.80;;;10.40;89.90;;;;;;4964989;28;20261;-87
2024/01/03 11:42:59;;;;;;;2.20;2.03;;;10.40;89.80;;;;;;4972499;28;20209;-93
2024/01/03 11:45:28;;;;;;;2.97;1.47;;;10.30;90.50;;;;;;4970009;28;20220;-89
2024/01/03 11:48:02;;;;;;;1.70;1.53;;;10.30;90.20;;;;;;4970741;28;20194;-85
2024/01/03 11:50:33;;;;;;;0.60;0.60;;;10.40;90.30;;;;;;4974707;28;20235;-87
2024/01/03 11:53:09;;;;;;;0.70;0.63;;;10.30;90.40;;;;;;4972163;28;20226;-90
2024/01/03 11:55:50;;;;;;;2.90;2.10;;;10.40;90.40;;;;;;4966157;28;20248;-90
2024/01/03 11:58:19;;;;;;;0.90;0.90;;;10.40;90.50;;;;;;4970816;28;20209;-92
2024/01/03 12:00:49;;;;;;;0.40;0.40;;;10.40;90.80;;;;;;4977004;28;20701;-91
2024/01/03 12:03:26;;;;;;;1.13;1.03;;;10.40;90.80;;;;;;4973700;28;20221;-88
2024/01/03 12:05:56;;;;;;;1.10;1.00;;;10.40;90.80;;;;;;4976751;28;20669;-89
2024/01/03 12:08:25;;;;;;;3.10;1.03;;;10.40;90.80;;;;;;4976552;28;20280;-88
2024/01/03 12:10:54;;;;;;;0.60;0.60;;;10.40;90.70;;;;;;4975805;28;20205;-90
2024/01/03 12:13:23;;;;;;;4.50;1.13;;;10.40;90.80;;;;;;4975960;28;20201;-93
2024/01/03 12:16:03;;;;;;;0.90;0.80;;;10.40;90.90;;;;;;4978618;28;20288;-89
2024/01/03 12:18:49;;;;;;;3.40;1.33;;;10.50;90.80;;;;;;4979297;28;20325;-90
2024/01/03 12:21:19;;;;;;;3.40;1.27;;;10.40;91.00;;;;;;4978955;28;20669;-92
2024/01/03 12:23:55;;;;;;;1.80;1.13;;;10.50;91.10;;;;;;4976246;28;20355;-92
2024/01/03 12:26:24;;;;;;;2.77;1.47;;;10.50;91.10;;;;;;4979789;28;20355;-94
2024/01/03 12:29:01;;;;;;;0.70;0.70;;;10.50;91.40;;;;;;4975911;28;20627;-94
2024/01/03 12:31:30;;;;;;;0.87;0.87;;;10.50;91.00;;;;;;4984654;28;20229;-89
2024/01/03 12:34:10;;;;;;;1.33;1.23;;;10.60;91.00;;;;;;4981067;28;20286;-95
2024/01/03 12:36:40;;;;;;;0.60;0.60;;;10.60;91.10;;;;;;4986619;28;20221;-92
2024/01/03 12:39:08;;;;;;;0.50;0.50;;;10.60;91.00;;;;;;4976282;28;20202;-86
2024/01/03 12:41:37;;;;;;;0.90;0.90;;;10.60;91.20;;;;;;4974605;28;20202;-88
2024/01/03 12:44:07;;;;;;;0.60;0.60;;;10.60;91.10;;;;;;4971438;28;20205;-89
2024/01/03 12:46:36;;;;;;;0.43;0.43;;;10.60;91.30;;;;;;4975392;28;20249;-87
2024/01/03 12:49:04;;;;;;;1.93;1.33;;;10.50;91.20;;;;;;4971119;28;20216;-88
2024/01/03 12:51:35;;;;;;;0.67;0.67;;;10.50;91.30;;;;;;4976037;28;20202;-88
2024/01/03 12:54:14;;;;;;;0.80;0.80;;;10.50;91.40;;;;;;4971369;28;20208;-90
2024/01/03 12:56:43;;;;;;;1.33;1.23;;;10.50;91.40;;;;;;4976074;28;20210;-91
2024/01/03 12:59:12;;;;;;;1.10;1.03;;;10.50;91.40;;;;;;4973220;28;20230;-92
2024/01/03 13:01:42;;;;;;;1.90;1.17;;;10.50;91.50;;;;;;4975099;28;20623;-90
2024/01/03 13:04:11;;;;;;;2.80;1.40;;;10.50;91.80;;;;;;4975220;28;20206;-89
2024/01/03 13:06:42;;;;;;;1.13;1.03;;;10.50;91.80;;;;;;4974004;28;20214;-90
2024/01/03 13:09:12;;;;;;;0.83;0.70;;;10.50;91.80;;;;;;4972006;28;20256;-89
2024/01/03 13:11:41;;;;;;;2.13;1.37;;;10.50;91.80;;;;;;4974483;28;20198;-88